createdAt,value
2019-02-28T00:02:28.505Z,44.50
2019-02-28T00:05:29.912Z,44.60
2019-02-28T00:08:31.289Z,44.60
2019-02-28T00:11:32.799Z,44.60
2019-02-28T00:14:34.205Z,44.60
2019-02-28T00:17:35.675Z,44.60
2019-02-28T00:20:37.160Z,44.50
2019-02-28T00:23:38.583Z,44.60
2019-02-28T00:26:39.974Z,44.70
2019-02-28T00:29:41.570Z,44.60
2019-02-28T00:32:42.994Z,44.70
2019-02-28T00:35:45.413Z,45.00
2019-02-28T00:38:46.873Z,44.70
2019-02-28T00:41:48.255Z,44.80
2019-02-28T00:44:49.674Z,44.80
2019-02-28T00:47:51.053Z,44.80
2019-02-28T00:50:52.423Z,44.90
2019-02-28T00:53:53.928Z,44.80
2019-02-28T00:56:55.303Z,44.90
2019-02-28T00:59:56.723Z,44.90
2019-02-28T01:02:58.183Z,44.80
2019-02-28T01:06:01.057Z,44.90
2019-02-28T01:09:02.666Z,44.90
2019-02-28T01:12:05.844Z,44.90
2019-02-28T01:15:10.029Z,45.00
2019-02-28T01:18:11.539Z,44.90
2019-02-28T01:21:12.968Z,45.00
2019-02-28T01:24:14.380Z,45.00
2019-02-28T01:27:17.384Z,45.00
2019-02-28T01:30:19.220Z,45.00
2019-02-28T01:33:24.551Z,45.00
2019-02-28T01:36:24.131Z,44.90
2019-02-28T01:39:25.502Z,45.00
2019-02-28T01:42:26.907Z,44.90
2019-02-28T01:45:28.412Z,45.00
2019-02-28T01:48:29.808Z,45.00
2019-02-28T01:51:35.710Z,44.90
2019-02-28T01:54:34.257Z,45.00
2019-02-28T01:57:35.708Z,45.00
2019-02-28T02:00:37.145Z,45.00
2019-02-28T02:03:40.687Z,45.00
2019-02-28T02:06:42.736Z,45.10
2019-02-28T02:09:46.179Z,45.10
2019-02-28T02:12:47.507Z,45.10
2019-02-28T02:15:51.417Z,45.10
2019-02-28T02:18:52.270Z,45.10
2019-02-28T02:21:53.786Z,45.10
2019-02-28T02:24:55.174Z,45.00
2019-02-28T02:27:56.566Z,45.10
2019-02-28T02:30:58.080Z,45.20
2019-02-28T02:33:59.462Z,45.10
2019-02-28T02:37:00.905Z,45.20
2019-02-28T02:40:02.337Z,45.20
2019-02-28T02:43:03.850Z,45.20
2019-02-28T02:46:05.266Z,45.20
2019-02-28T02:49:06.655Z,45.20
2019-02-28T02:52:08.110Z,45.30
2019-02-28T02:55:09.621Z,45.20
2019-02-28T02:58:11.040Z,45.30
2019-02-28T03:01:12.437Z,45.20
2019-02-28T03:04:21.509Z,45.20
2019-02-28T03:07:22.944Z,45.40
2019-02-28T03:10:21.039Z,45.40
2019-02-28T03:13:22.445Z,45.30
2019-02-28T03:16:24.363Z,45.30
2019-02-28T03:19:33.094Z,45.30
2019-02-28T03:22:30.400Z,45.90
2019-02-28T03:25:32.134Z,45.40
2019-02-28T03:28:33.553Z,45.40
2019-02-28T03:31:34.972Z,45.30
2019-02-28T03:34:36.591Z,45.30
2019-02-28T03:37:37.951Z,45.40
2019-02-28T03:40:40.245Z,45.40
2019-02-28T03:43:44.188Z,45.30
2019-02-28T03:46:46.913Z,45.40
2019-02-28T03:49:50.257Z,45.60
2019-02-28T03:52:51.779Z,45.40
2019-02-28T03:55:53.274Z,45.40
2019-02-28T03:58:54.718Z,45.40
2019-02-28T04:01:56.121Z,45.30
2019-02-28T04:04:57.507Z,45.40
2019-02-28T04:07:58.899Z,45.40
2019-02-28T04:11:00.319Z,45.40
2019-02-28T04:14:01.726Z,45.50
2019-02-28T04:17:03.134Z,45.50
2019-02-28T04:20:05.296Z,45.40
2019-02-28T04:23:06.846Z,45.50
2019-02-28T04:26:08.296Z,45.50
2019-02-28T04:29:09.695Z,45.50
2019-02-28T04:32:11.124Z,45.40
2019-02-28T04:35:12.741Z,45.50
2019-02-28T04:38:14.117Z,45.50
2019-02-28T04:41:15.555Z,45.50
2019-02-28T04:44:18.268Z,45.50
2019-02-28T04:47:20.063Z,45.50
2019-02-28T04:50:21.522Z,45.40
2019-02-28T04:53:22.990Z,45.50
2019-02-28T04:56:24.396Z,45.50
2019-02-28T04:59:25.802Z,45.50
2019-02-28T05:02:27.212Z,46.10
2019-02-28T05:05:28.726Z,45.50
2019-02-28T05:08:31.194Z,45.60
2019-02-28T05:11:33.706Z,45.60
2019-02-28T05:14:35.382Z,45.60
2019-02-28T05:17:37.124Z,45.60
2019-02-28T05:20:38.548Z,45.60
2019-02-28T05:23:40.159Z,45.60
2019-02-28T05:26:41.542Z,45.60
2019-02-28T05:29:44.064Z,45.60
2019-02-28T05:32:46.222Z,45.60
2019-02-28T05:35:47.618Z,45.50
2019-02-28T05:38:49.024Z,45.60
2019-02-28T05:41:50.475Z,45.70
2019-02-28T05:44:51.891Z,45.60
2019-02-28T05:47:53.314Z,45.60
2019-02-28T05:50:54.710Z,45.60
2019-02-28T05:53:56.088Z,45.60
2019-02-28T05:56:57.487Z,45.60
2019-02-28T06:00:01.898Z,45.60
2019-02-28T06:03:02.674Z,45.70
2019-02-28T06:06:04.159Z,45.40
2019-02-28T06:09:06.570Z,45.60
2019-02-28T06:12:09.525Z,45.60
2019-02-28T06:15:11.427Z,45.60
2019-02-28T06:18:12.835Z,45.70
2019-02-28T06:21:14.249Z,45.60
2019-02-28T06:24:15.652Z,45.60
2019-02-28T06:27:17.058Z,45.60
2019-02-28T06:30:19.539Z,45.60
2019-02-28T06:33:21.322Z,45.60
2019-02-28T06:36:25.712Z,45.60
2019-02-28T06:39:27.558Z,45.60
2019-02-28T06:42:29.006Z,45.70
2019-02-28T06:45:30.363Z,45.70
2019-02-28T06:48:31.874Z,45.70
2019-02-28T06:51:33.272Z,45.70
2019-02-28T06:54:34.658Z,45.80
2019-02-28T06:57:36.250Z,45.70
2019-02-28T07:00:37.770Z,45.80
2019-02-28T07:03:39.883Z,45.70
2019-02-28T07:06:41.591Z,45.80
2019-02-28T07:09:43.264Z,45.90
2019-02-28T07:12:45.018Z,45.90
2019-02-28T07:15:46.437Z,46.00
2019-02-28T07:18:52.871Z,46.10
2019-02-28T07:21:51.297Z,46.00
2019-02-28T07:24:52.886Z,46.10
2019-02-28T07:27:54.404Z,45.90
2019-02-28T07:30:55.827Z,45.90
2019-02-28T07:33:57.325Z,45.90
2019-02-28T07:36:59.096Z,45.90
2019-02-28T07:40:00.561Z,45.90
2019-02-28T07:43:02.043Z,45.90
2019-02-28T07:46:04.537Z,46.50
2019-02-28T07:49:06.704Z,46.50
2019-02-28T07:52:08.151Z,45.90
2019-02-28T07:55:11.015Z,46.00
2019-02-28T07:58:12.899Z,45.90
2019-02-28T08:01:14.334Z,45.90
2019-02-28T08:04:18.506Z,45.90
2019-02-28T08:07:19.003Z,45.90
2019-02-28T08:10:21.385Z,45.80
2019-02-28T08:13:22.805Z,45.70
2019-02-28T08:16:24.279Z,45.80
2019-02-28T08:19:27.144Z,46.00
2019-02-28T08:22:28.981Z,46.00
2019-02-28T08:25:30.482Z,46.00
2019-02-28T08:28:35.860Z,46.00
2019-02-28T08:31:35.524Z,46.00
2019-02-28T08:34:37.035Z,45.80
2019-02-28T08:37:38.493Z,45.70
2019-02-28T08:40:39.999Z,45.70
2019-02-28T08:43:44.574Z,45.70
2019-02-28T08:46:47.225Z,45.80
2019-02-28T08:49:49.038Z,46.40
2019-02-28T08:52:52.051Z,45.90
2019-02-28T08:55:53.603Z,46.00
2019-02-28T08:58:55.118Z,46.00
2019-02-28T09:01:56.612Z,46.00
2019-02-28T09:04:58.079Z,46.00
2019-02-28T09:07:59.880Z,46.10
2019-02-28T09:11:02.398Z,46.10
2019-02-28T09:14:03.829Z,46.10
2019-02-28T09:17:05.297Z,46.20
2019-02-28T09:20:10.461Z,46.30
2019-02-28T09:23:10.935Z,46.30
2019-02-28T09:26:12.343Z,46.40
2019-02-28T09:29:13.892Z,46.40
2019-02-28T09:32:15.395Z,46.40
2019-02-28T09:35:16.935Z,46.40
2019-02-28T09:38:18.408Z,46.30
2019-02-28T09:41:20.251Z,46.30
2019-02-28T09:44:21.753Z,46.30
2019-02-28T09:47:26.528Z,46.20
2019-02-28T09:50:26.596Z,46.10
2019-02-28T09:53:28.181Z,46.10
2019-02-28T09:56:29.658Z,46.10
2019-02-28T09:59:34.006Z,46.10
2019-02-28T10:02:34.318Z,46.00
2019-02-28T10:05:38.985Z,46.00
2019-02-28T10:08:38.951Z,46.00
2019-02-28T10:11:40.656Z,46.00
2019-02-28T10:14:43.064Z,45.90
2019-02-28T10:17:44.518Z,45.80
2019-02-28T10:20:46.485Z,45.70
2019-02-28T10:23:48.104Z,45.70
2019-02-28T10:26:51.505Z,45.60
2019-02-28T10:29:54.852Z,45.60
2019-02-28T10:32:56.344Z,45.50
2019-02-28T10:35:57.765Z,45.50
2019-02-28T10:38:59.201Z,45.60
2019-02-28T10:42:01.544Z,45.50
2019-02-28T10:45:06.549Z,45.50
2019-02-28T10:48:08.240Z,45.60
2019-02-28T10:51:13.972Z,45.50
2019-02-28T10:54:14.570Z,45.60
2019-02-28T10:57:16.436Z,45.50
2019-02-28T11:00:29.518Z,45.60
2019-02-28T11:03:32.183Z,45.60
2019-02-28T11:06:40.063Z,45.60
2019-02-28T11:09:41.451Z,45.60
2019-02-28T11:12:42.979Z,45.70
2019-02-28T11:15:48.019Z,45.70
2019-02-28T11:18:48.505Z,45.80
2019-02-28T11:21:50.062Z,45.20
2019-02-28T11:24:52.082Z,44.50
2019-02-28T11:27:54.577Z,42.40
2019-02-28T11:30:56.669Z,42.10
2019-02-28T11:33:58.428Z,41.70
2019-02-28T11:36:59.990Z,41.50
2019-02-28T11:40:01.543Z,41.10
2019-02-28T11:43:04.282Z,41.00
2019-02-28T11:46:07.326Z,40.50
2019-02-28T11:49:08.982Z,40.30
2019-02-28T11:52:10.524Z,40.10
2019-02-28T11:55:13.073Z,40.10
2019-02-28T11:58:17.680Z,39.90
2019-02-28T12:01:17.966Z,39.40
2019-02-28T12:04:19.479Z,38.60
2019-02-28T12:07:20.932Z,39.00
2019-02-28T12:10:22.876Z,38.90
2019-02-28T12:13:24.463Z,38.60
2019-02-28T12:16:28.971Z,38.50
2019-02-28T12:19:31.011Z,38.30
2019-02-28T12:22:32.583Z,37.90
2019-02-28T12:25:34.816Z,37.90
2019-02-28T12:28:38.260Z,37.90
2019-02-28T12:31:40.736Z,37.30
2019-02-28T12:34:42.262Z,37.10
2019-02-28T12:37:43.795Z,37.10
2019-02-28T12:40:45.687Z,36.70
2019-02-28T12:43:48.438Z,36.80
2019-02-28T12:46:50.020Z,34.70
2019-02-28T12:49:54.352Z,34.00
2019-02-28T12:52:55.807Z,33.60
2019-02-28T12:55:57.646Z,32.20
2019-02-28T12:58:59.468Z,32.30
2019-02-28T13:02:01.031Z,33.20
2019-02-28T13:05:02.875Z,32.50
2019-02-28T13:08:06.019Z,32.40
2019-02-28T13:11:08.644Z,32.70
2019-02-28T13:14:10.155Z,32.90
2019-02-28T13:17:11.703Z,30.90
2019-02-28T13:20:32.177Z,30.80
2019-02-28T13:23:32.906Z,32.20
2019-02-28T13:26:34.475Z,32.30
2019-02-28T13:29:36.032Z,32.10
2019-02-28T13:32:38.281Z,30.70
2019-02-28T13:35:46.982Z,28.90
2019-02-28T13:38:44.973Z,28.70
2019-02-28T13:41:46.523Z,28.10
2019-02-28T13:44:48.015Z,28.10
2019-02-28T13:47:49.913Z,27.60
2019-02-28T13:50:51.614Z,27.70
2019-02-28T13:53:53.162Z,27.70
2019-02-28T13:56:54.695Z,27.20
2019-02-28T13:59:56.454Z,27.50
2019-02-28T14:03:08.857Z,28.60
2019-02-28T14:06:06.483Z,27.30
2019-02-28T14:09:10.523Z,29.30
2019-02-28T14:12:12.170Z,27.40
2019-02-28T14:15:16.904Z,27.70
2019-02-28T14:18:18.554Z,27.90
2019-02-28T14:21:20.095Z,27.30
2019-02-28T14:24:21.774Z,27.30
2019-02-28T14:27:26.060Z,27.80
2019-02-28T14:30:29.171Z,27.50
2019-02-28T14:33:30.737Z,27.10
2019-02-28T14:36:32.235Z,27.30
2019-02-28T14:39:33.830Z,27.80
2019-02-28T14:42:35.863Z,27.70
2019-02-28T14:45:39.018Z,27.20
2019-02-28T14:48:41.801Z,28.00
2019-02-28T14:51:43.336Z,27.60
2019-02-28T14:54:45.238Z,28.00
2019-02-28T14:57:48.916Z,27.60
2019-02-28T15:00:50.344Z,27.90
2019-02-28T15:03:52.296Z,27.90
2019-02-28T15:06:53.820Z,27.50
2019-02-28T15:09:55.368Z,27.80
2019-02-28T15:12:58.650Z,28.20
2019-02-28T15:16:00.836Z,28.40
2019-02-28T15:19:02.423Z,28.40
2019-02-28T15:22:04.027Z,29.90
2019-02-28T15:25:05.908Z,31.20
2019-02-28T15:28:07.531Z,31.60
2019-02-28T15:31:09.459Z,31.90
2019-02-28T15:34:11.354Z,32.00
2019-02-28T15:37:12.933Z,32.20
2019-02-28T15:40:24.644Z,32.20
2019-02-28T15:43:27.097Z,32.80
2019-02-28T15:46:28.601Z,32.10
2019-02-28T15:49:30.106Z,31.90
2019-02-28T15:52:31.570Z,31.70
2019-02-28T15:55:35.117Z,31.50
2019-02-28T15:58:37.697Z,31.00
2019-02-28T16:01:39.715Z,30.50
2019-02-28T16:04:41.287Z,30.10
2019-02-28T16:07:42.839Z,29.90
2019-02-28T16:10:52.963Z,30.00
2019-02-28T16:13:48.138Z,30.60
2019-02-28T16:16:49.644Z,30.90
2019-02-28T16:19:53.189Z,30.90
2019-02-28T16:22:54.809Z,31.60
2019-02-28T16:25:56.615Z,31.10
2019-02-28T16:29:00.296Z,30.90
2019-02-28T16:32:01.832Z,30.40
2019-02-28T16:35:03.411Z,30.20
2019-02-28T16:38:06.385Z,30.90
2019-02-28T16:41:08.620Z,31.60
2019-02-28T16:44:10.119Z,32.00
2019-02-28T16:47:11.540Z,32.20
2019-02-28T16:50:15.301Z,32.20
2019-02-28T16:53:16.813Z,32.20
2019-02-28T16:56:18.679Z,32.50
2019-02-28T16:59:20.568Z,32.70
2019-02-28T17:02:22.376Z,33.10
2019-02-28T17:05:27.988Z,33.60
2019-02-28T17:08:28.923Z,33.80
2019-02-28T17:11:30.512Z,34.00
2019-02-28T17:14:32.182Z,34.10
2019-02-28T17:17:56.511Z,34.30
2019-02-28T17:20:58.133Z,34.40
2019-02-28T17:24:02.179Z,34.60
2019-02-28T17:27:25.278Z,34.70
2019-02-28T17:30:37.575Z,34.80
2019-02-28T17:33:43.280Z,35.00
2019-02-28T17:36:47.624Z,35.30
2019-02-28T17:39:51.151Z,35.40
2019-02-28T17:42:51.884Z,35.60
2019-02-28T17:45:53.404Z,35.70
2019-02-28T17:49:53.719Z,35.90
2019-02-28T17:53:36.586Z,36.20
2019-02-28T17:57:41.662Z,36.60
2019-02-28T18:01:30.644Z,36.70
2019-02-28T18:05:13.797Z,37.00
2019-02-28T18:08:43.632Z,37.10
2019-02-28T18:12:52.707Z,37.30
2019-02-28T18:16:41.593Z,37.40
2019-02-28T18:20:38.550Z,37.60
2019-02-28T18:24:43.246Z,38.10
2019-02-28T18:28:40.455Z,38.00
2019-02-28T18:31:42.042Z,38.10
2019-02-28T18:34:45.084Z,38.30
2019-02-28T18:37:46.568Z,38.20
2019-02-28T18:40:48.194Z,38.00
2019-02-28T18:43:49.749Z,38.60
2019-02-28T18:46:51.680Z,38.10
2019-02-28T18:49:53.306Z,38.10
2019-02-28T18:52:54.890Z,38.30
2019-02-28T18:55:56.361Z,38.40
2019-02-28T18:58:58.192Z,38.50
2019-02-28T19:01:59.685Z,38.60
2019-02-28T19:05:01.310Z,38.70
2019-02-28T19:08:03.005Z,38.70
2019-02-28T19:11:04.856Z,38.80
2019-02-28T19:14:06.410Z,38.80
2019-02-28T19:17:08.170Z,38.90
2019-02-28T19:20:11.410Z,39.10
2019-02-28T19:23:13.493Z,39.30
2019-02-28T19:26:17.517Z,39.30
2019-02-28T19:29:20.611Z,39.50
2019-02-28T19:32:22.667Z,39.60
2019-02-28T19:35:24.371Z,39.80
2019-02-28T19:38:26.566Z,39.80
2019-02-28T19:41:28.708Z,40.00
2019-02-28T19:44:31.398Z,40.00
2019-02-28T19:47:32.896Z,40.00
2019-02-28T19:50:34.522Z,40.10
2019-02-28T19:53:36.265Z,40.20
2019-02-28T19:56:37.801Z,40.40
2019-02-28T19:59:39.400Z,40.40
2019-02-28T20:02:40.863Z,40.70
2019-02-28T20:05:42.772Z,40.70
2019-02-28T20:08:44.309Z,40.90
2019-02-28T20:11:45.763Z,41.00
2019-02-28T20:14:47.349Z,41.00
2019-02-28T20:17:49.001Z,41.20
2019-02-28T20:20:50.984Z,41.10
2019-02-28T20:23:52.600Z,41.20
2019-02-28T20:26:54.146Z,41.40
2019-02-28T20:29:55.695Z,41.30
2019-02-28T20:32:57.511Z,41.40
2019-02-28T20:35:59.126Z,41.60
2019-02-28T20:39:00.781Z,41.60
2019-02-28T20:42:03.842Z,41.70
2019-02-28T20:45:07.551Z,41.80
2019-02-28T20:48:09.404Z,41.90
2019-02-28T20:51:10.924Z,41.90
2019-02-28T20:54:12.500Z,41.90
2019-02-28T20:57:14.218Z,42.00
2019-02-28T21:00:18.437Z,42.10
2019-02-28T21:03:21.492Z,42.10
2019-02-28T21:06:24.085Z,42.30
2019-02-28T21:09:26.223Z,42.40
2019-02-28T21:12:27.754Z,42.40
2019-02-28T21:15:29.610Z,42.40
2019-02-28T21:18:31.336Z,42.50
2019-02-28T21:21:33.205Z,42.60
2019-02-28T21:24:34.682Z,42.60
2019-02-28T21:27:36.522Z,42.60
2019-02-28T21:30:38.075Z,42.70
2019-02-28T21:33:39.676Z,42.90
2019-02-28T21:36:41.722Z,43.00
2019-02-28T21:39:43.481Z,43.00
2019-02-28T21:42:45.523Z,43.00
2019-02-28T21:45:47.095Z,43.10
2019-02-28T21:48:48.618Z,43.20
2019-02-28T21:51:50.210Z,43.10
2019-02-28T21:54:51.958Z,43.30
2019-02-28T21:57:53.611Z,43.40
2019-02-28T22:00:55.164Z,43.50
2019-02-28T22:03:56.633Z,43.50
2019-02-28T22:06:58.238Z,43.50
2019-02-28T22:10:00.328Z,43.60
2019-02-28T22:13:01.863Z,43.60
2019-02-28T22:16:03.320Z,43.70
2019-02-28T22:19:04.787Z,44.30
2019-02-28T22:22:06.276Z,43.90
2019-02-28T22:25:08.959Z,43.90
2019-02-28T22:28:10.506Z,44.00
2019-02-28T22:31:30.321Z,44.00
2019-02-28T22:34:50.766Z,44.10
2019-02-28T22:37:52.269Z,44.20
2019-02-28T22:40:53.708Z,44.50
2019-02-28T22:43:55.563Z,44.20
2019-02-28T22:46:56.995Z,44.30
2019-02-28T22:49:58.422Z,44.40
2019-02-28T22:53:00.047Z,44.50
2019-02-28T22:56:01.440Z,44.50
2019-02-28T22:59:02.997Z,44.50
2019-02-28T23:02:04.452Z,44.60
2019-02-28T23:05:06.897Z,44.80
2019-02-28T23:08:09.710Z,44.70
2019-02-28T23:11:11.159Z,44.80
2019-02-28T23:14:12.659Z,44.90
2019-02-28T23:17:14.255Z,44.90
2019-02-28T23:20:15.656Z,45.00
2019-02-28T23:23:17.082Z,45.00
2019-02-28T23:26:21.134Z,45.10
2019-02-28T23:29:23.566Z,45.20
2019-02-28T23:32:46.939Z,45.20
2019-02-28T23:35:51.065Z,45.30
2019-02-28T23:38:52.483Z,45.20
2019-02-28T23:41:53.903Z,45.40
2019-02-28T23:44:55.297Z,45.40
2019-02-28T23:47:56.697Z,45.50
2019-02-28T23:50:58.072Z,45.50
2019-02-28T23:53:59.478Z,45.50
2019-02-28T23:57:00.906Z,45.50
